Time;durP1;ratioP1;P1;durP2;ratioP2;P2;SDS_P1;SDS_P2;PMS_P1;PMS_P2;Temp;Humidity;BMP_temperature;BMP_pressure;BME280_temperature;BME280_humidity;BME280_pressure;Samples;Min_cycle;Max_cycle;Signal;HPM_P1;HPM_P2
2022/02/03 00:00:08;;;;;;;;;24.33;21.00;;;;;;;;5183384;27;12583;-74
2022/02/03 00:02:43;;;;;;;;;32.33;28.33;;;;;;;;5182952;27;12155;-74
2022/02/03 00:05:20;;;;;;;;;41.67;36.33;;;;;;;;5183103;27;13662;-75
2022/02/03 00:26:11;;;;;;;;;37.33;37.00;;;;;;;;5182992;27;14374;-74
2022/02/03 00:28:41;;;;;;;;;42.33;33.00;;;;;;;;5163079;27;13637;-75
2022/02/03 00:31:21;;;;;;;;;41.00;36.33;;;;;;;;5183266;27;10973;-74
2022/02/03 00:34:00;;;;;;;;;40.00;37.00;;;;;;;;5164060;27;13470;-74
2022/02/03 00:36:40;;;;;;;;;43.00;36.00;;;;;;;;5182232;27;12538;-74
2022/02/03 00:52:21;;;;;;;;;41.67;37.67;;;;;;;;5181729;27;12431;-74
2022/02/03 00:54:46;;;;;;;;;32.67;27.67;;;;;;;;5182569;27;12166;-74
2022/02/03 00:57:16;;;;;;;;;29.33;29.00;;;;;;;;5182783;27;10902;-74
2022/02/03 00:59:57;;;;;;;;;29.33;29.33;;;;;;;;5163521;27;13684;-74
2022/02/03 01:02:25;;;;;;;;;27.67;24.67;;;;;;;;5163554;27;8833;-73
2022/02/03 01:04:52;;;;;;;;;38.00;30.67;;;;;;;;5181869;27;11526;-74
2022/02/03 01:07:19;;;;;;;;;29.67;27.67;;;;;;;;5182612;27;12283;-74
2022/02/03 01:09:54;;;;;;;;;32.00;27.67;;;;;;;;5182276;27;12328;-73
2022/02/03 01:12:38;;;;;;;;;29.00;26.67;;;;;;;;5181932;27;10244;-74
2022/02/03 01:15:32;;;;;;;;;30.67;27.00;;;;;;;;5182263;27;10736;-74
2022/02/03 01:18:22;;;;;;;;;37.00;32.00;;;;;;;;5182296;27;13638;-74
2022/02/03 01:21:22;;;;;;;;;33.00;29.33;;;;;;;;5166516;27;11547;-75
2022/02/03 01:34:48;;;;;;;;;30.00;21.67;;;;;;;;5181154;27;9593;-72
2022/02/03 01:45:24;;;;;;;;;27.67;26.00;;;;;;;;5181428;27;11411;-73
2022/02/03 01:48:17;;;;;;;;;32.00;28.33;;;;;;;;5162606;27;8872;-72
2022/02/03 01:53:32;;;;;;;;;31.67;28.33;;;;;;;;5141901;27;14524;-72
2022/02/03 01:56:05;;;;;;;;;33.00;29.00;;;;;;;;5181743;27;13534;-72
2022/02/03 01:58:42;;;;;;;;;30.67;30.00;;;;;;;;5180900;27;12095;-72
2022/02/03 02:01:08;;;;;;;;;34.00;27.33;;;;;;;;5181760;27;11453;-73
2022/02/03 02:03:38;;;;;;;;;19.33;16.33;;;;;;;;5181337;27;13455;-73
2022/02/03 02:06:13;;;;;;;;;25.00;23.00;;;;;;;;5181479;27;12317;-73
2022/02/03 02:08:42;;;;;;;;;30.00;27.00;;;;;;;;5162036;27;15347;-72
2022/02/03 02:11:35;;;;;;;;;21.67;18.33;;;;;;;;5181484;27;10493;-72
2022/02/03 02:17:31;;;;;;;;;28.33;28.33;;;;;;;;5122202;27;13661;-72
2022/02/03 02:20:06;;;;;;;;;26.00;23.33;;;;;;;;5180879;27;13337;-73
2022/02/03 02:40:03;;;;;;;;;31.33;27.00;;;;;;;;5120604;28;11548;-72
2022/02/03 02:42:39;;;;;;;;;29.00;23.67;;;;;;;;5119711;28;11472;-73
2022/02/03 02:45:12;;;;;;;;;31.33;25.00;;;;;;;;5119098;28;14941;-75
2022/02/03 02:47:37;;;;;;;;;26.67;26.33;;;;;;;;5119596;28;13352;-75
2022/02/03 02:50:06;;;;;;;;;29.67;26.33;;;;;;;;5119484;28;13212;-74
2022/02/03 02:52:43;;;;;;;;;27.00;25.33;;;;;;;;5119656;28;8792;-77
2022/02/03 03:01:40;;;;;;;;;29.00;24.33;;;;;;;;5119815;28;10388;-73
2022/02/03 03:03:55;;;;;;;;;26.00;23.33;;;;;;;;5118755;28;10939;-72
2022/02/03 03:34:08;;;;;;;;;25.00;25.00;;;;;;;;5183188;27;11503;-72
2022/02/03 07:00:40;;;;;;;;;44.25;37.50;;;;;;;;5200096;27;22549;-78
2022/02/03 07:03:12;;;;;;;;;40.25;33.50;;;;;;;;5200394;27;11811;-76
2022/02/03 07:05:38;;;;;;;;;34.00;32.00;;;;;;;;5180764;27;11188;-74
2022/02/03 07:08:05;;;;;;;;;30.75;27.00;;;;;;;;5200092;27;14509;-77
2022/02/03 07:10:30;;;;;;;;;34.25;32.25;;;;;;;;5181517;27;11583;-78
2022/02/03 07:12:58;;;;;;;;;35.50;33.25;;;;;;;;5200795;27;12714;-79
2022/02/03 07:15:23;;;;;;;;;39.00;33.75;;;;;;;;5200275;27;10450;-76
2022/02/03 07:17:48;;;;;;;;;40.50;32.00;;;;;;;;5199982;27;10794;-76
2022/02/03 07:20:15;;;;;;;;;34.50;32.50;;;;;;;;5199770;27;14991;-80
2022/02/03 07:22:42;;;;;;;;;45.25;39.50;;;;;;;;5181400;27;13805;-76
2022/02/03 07:25:08;;;;;;;;;37.75;31.00;;;;;;;;5200026;27;12306;-79
2022/02/03 07:27:33;;;;;;;;;41.00;37.00;;;;;;;;5180319;27;15786;-86
2022/02/03 07:29:58;;;;;;;;;44.00;37.50;;;;;;;;5200719;27;12248;-76
2022/02/03 07:32:24;;;;;;;;;36.50;32.50;;;;;;;;5199998;27;11770;-75
2022/02/03 07:34:53;;;;;;;;;38.50;33.25;;;;;;;;5193382;27;12335;-75
2022/02/03 07:37:18;;;;;;;;;41.25;35.25;;;;;;;;5169163;27;14737;-75
2022/02/03 07:39:44;;;;;;;;;51.50;41.25;;;;;;;;5168433;27;14386;-78
2022/02/03 07:42:10;;;;;;;;;36.50;34.50;;;;;;;;5169762;27;14402;-74
2022/02/03 07:44:35;;;;;;;;;41.00;34.67;;;;;;;;5186841;27;13454;-75
2022/02/03 07:47:00;;;;;;;;;39.67;36.33;;;;;;;;5188949;27;13428;-82
2022/02/03 07:49:29;;;;;;;;;36.33;28.67;;;;;;;;5188938;27;14112;-73
2022/02/03 07:51:55;;;;;;;;;43.00;39.33;;;;;;;;5188774;27;12468;-74
2022/02/03 07:54:20;;;;;;;;;45.67;39.33;;;;;;;;5187159;27;13211;-74
2022/02/03 07:56:45;;;;;;;;;47.67;37.00;;;;;;;;5168671;27;11447;-74
2022/02/03 07:59:14;;;;;;;;;40.67;37.00;;;;;;;;5188395;27;12318;-75
2022/02/03 08:01:40;;;;;;;;;43.67;36.00;;;;;;;;5185976;27;8778;-76
2022/02/03 08:04:09;;;;;;;;;28.67;22.33;;;;;;;;5199797;27;8783;-78
2022/02/03 08:06:40;;;;;;;;;49.67;42.67;;;;;;;;5180656;27;15081;-74
2022/02/03 08:09:17;;;;;;;;;49.33;39.33;;;;;;;;5187498;27;13486;-74
2022/02/03 08:11:46;;;;;;;;;40.33;38.33;;;;;;;;5166071;27;14655;-78
2022/02/03 08:14:17;;;;;;;;;44.00;38.33;;;;;;;;5185346;27;9108;-78
2022/02/03 08:16:49;;;;;;;;;41.00;35.67;;;;;;;;5153316;27;11291;-77
2022/02/03 08:21:52;;;;;;;;;42.67;35.67;;;;;;;;5171517;27;8931;-78
2022/02/03 08:24:25;;;;;;;;;41.00;37.67;;;;;;;;5171778;27;10914;-76
2022/02/03 08:32:33;;;;;;;;;38.67;33.33;;;;;;;;5173414;27;11417;-78
2022/02/03 08:40:44;;;;;;;;;43.00;37.33;;;;;;;;5139014;27;13038;-76
2022/02/03 08:43:13;;;;;;;;;33.00;29.00;;;;;;;;5174103;27;13626;-77
2022/02/03 08:45:38;;;;;;;;;37.67;35.33;;;;;;;;5154306;27;15784;-78
2022/02/03 08:48:04;;;;;;;;;36.00;31.00;;;;;;;;5154005;27;13774;-76
2022/02/03 08:50:32;;;;;;;;;14.33;10.67;;;;;;;;5172411;27;11904;-75
2022/02/03 08:53:07;;;;;;;;;32.00;30.00;;;;;;;;5171632;27;13539;-76
2022/02/03 08:55:47;;;;;;;;;34.00;30.33;;;;;;;;5171631;27;14020;-76
2022/02/03 09:32:59;;;;;;;;;38.00;36.67;;;;;;;;5098718;28;11487;-79
2022/02/03 09:39:14;;;;;;;;;45.67;38.33;;;;;;;;5183699;27;13287;-76
2022/02/03 09:52:41;;;;;;;;;42.67;37.33;;;;;;;;5171147;27;13259;-79
2022/02/03 10:00:34;;;;;;;;;45.00;40.33;;;;;;;;5178159;27;11444;-81
2022/02/03 10:03:01;;;;;;;;;55.67;43.67;;;;;;;;5180125;27;12307;-81
2022/02/03 10:05:42;;;;;;;;;56.67;46.00;;;;;;;;5171047;27;13792;-79
2022/02/03 10:08:11;;;;;;;;;67.50;53.75;;;;;;;;5169909;27;11545;-78
2022/02/03 10:10:36;;;;;;;;;71.50;55.25;;;;;;;;5173219;27;14695;-79
2022/02/03 10:13:13;;;;;;;;;54.67;46.00;;;;;;;;5153728;27;12848;-79
2022/02/03 10:15:39;;;;;;;;;59.00;44.67;;;;;;;;5152936;27;15914;-80
2022/02/03 10:18:19;;;;;;;;;56.00;46.33;;;;;;;;5173813;27;11731;-79
2022/02/03 10:20:46;;;;;;;;;61.33;48.67;;;;;;;;5152957;27;14974;-80
2022/02/03 10:23:15;;;;;;;;;55.00;46.33;;;;;;;;5152974;27;16584;-80
2022/02/03 10:25:40;;;;;;;;;51.00;45.00;;;;;;;;5172923;27;14089;-80
2022/02/03 10:28:10;;;;;;;;;56.33;46.33;;;;;;;;5171050;27;11880;-80
2022/02/03 10:30:42;;;;;;;;;60.67;47.33;;;;;;;;5171723;27;11702;-81
2022/02/03 10:33:07;;;;;;;;;58.67;45.33;;;;;;;;5172450;27;13398;-79
2022/02/03 10:35:43;;;;;;;;;59.33;48.33;;;;;;;;5172011;27;10411;-80
2022/02/03 10:46:42;;;;;;;;;57.00;47.00;;;;;;;;5162654;27;8785;-78
2022/02/03 10:55:43;;;;;;;;;60.67;47.67;;;;;;;;5172165;27;11471;-79
2022/02/03 11:03:25;;;;;;;;;62.00;49.33;;;;;;;;5182542;27;8764;-79
2022/02/03 11:08:24;;;;;;;;;60.67;49.33;;;;;;;;5182348;27;12510;-80
2022/02/03 11:10:57;;;;;;;;;65.00;51.00;;;;;;;;5182177;27;11107;-83
2022/02/03 11:13:25;;;;;;;;;62.00;47.33;;;;;;;;5163651;27;14564;-82
2022/02/03 11:15:52;;;;;;;;;54.00;44.00;;;;;;;;5182390;27;12562;-79
2022/02/03 11:18:19;;;;;;;;;57.00;46.00;;;;;;;;5181877;27;13515;-78
2022/02/03 11:20:44;;;;;;;;;59.00;46.50;;;;;;;;5181762;27;9601;-79
2022/02/03 11:23:19;;;;;;;;;51.50;43.00;;;;;;;;5177869;27;13094;-80
2022/02/03 11:28:43;;;;;;;;;49.25;40.75;;;;;;;;5168548;27;11511;-72
2022/02/03 11:32:10;;;;;;;;;54.00;43.25;;;;;;;;5165983;27;13775;-73
2022/02/03 11:40:24;;;;;;;;;52.75;44.00;;;;;;;;5169171;27;11442;-75
2022/02/03 11:45:54;;;;;;;;;53.25;45.00;;;;;;;;5171071;27;11495;-71
2022/02/03 11:49:56;;;;;;;;;56.25;46.00;;;;;;;;5169914;27;11973;-74
2022/02/03 12:10:18;;;;;;;;;68.00;54.00;;;;;;;;5183410;27;12504;-71
2022/02/03 12:21:26;;;;;;;;;55.67;45.33;;;;;;;;5183340;27;13343;-72
2022/02/03 12:24:13;;;;;;;;;43.00;39.00;;;;;;;;5181811;27;11813;-75
2022/02/03 12:26:57;;;;;;;;;55.00;46.33;;;;;;;;5182171;27;13383;-73
2022/02/03 12:29:37;;;;;;;;;56.00;45.33;;;;;;;;5183408;27;13560;-74
2022/02/03 12:37:42;;;;;;;;;46.00;38.00;;;;;;;;5163022;27;11425;-72
2022/02/03 12:40:13;;;;;;;;;47.67;41.33;;;;;;;;5161177;27;12758;-71
2022/02/03 12:42:53;;;;;;;;;49.33;42.00;;;;;;;;5162188;27;12738;-74
2022/02/03 12:45:26;;;;;;;;;49.33;42.00;;;;;;;;5161982;27;11924;-73
2022/02/03 12:47:53;;;;;;;;;45.00;37.67;;;;;;;;5162216;27;8925;-73
2022/02/03 12:50:23;;;;;;;;;49.33;41.33;;;;;;;;5161821;27;12857;-72
2022/02/03 12:52:49;;;;;;;;;45.33;38.33;;;;;;;;5161610;27;12997;-73
2022/02/03 12:55:26;;;;;;;;;44.00;38.00;;;;;;;;5142383;27;11745;-72
2022/02/03 12:57:51;;;;;;;;;46.67;39.33;;;;;;;;5161824;27;11703;-73
2022/02/03 13:00:29;;;;;;;;;46.00;40.00;;;;;;;;5161735;27;11679;-73
2022/02/03 13:02:56;;;;;;;;;51.00;39.00;;;;;;;;5162421;27;12317;-72
2022/02/03 13:05:26;;;;;;;;;47.67;38.00;;;;;;;;5162313;27;11578;-73
2022/02/03 13:07:52;;;;;;;;;42.00;38.00;;;;;;;;5162321;27;12431;-73
2022/02/03 13:10:20;;;;;;;;;42.67;38.00;;;;;;;;5161233;27;11648;-73
2022/02/03 13:12:53;;;;;;;;;43.00;37.67;;;;;;;;5161987;27;11689;-72
2022/02/03 13:15:41;;;;;;;;;39.67;34.33;;;;;;;;5160694;27;11699;-72
2022/02/03 13:18:30;;;;;;;;;44.67;39.00;;;;;;;;5161423;27;13859;-75
2022/02/03 13:21:17;;;;;;;;;50.67;39.00;;;;;;;;5161128;27;13334;-73
2022/02/03 13:23:49;;;;;;;;;38.67;36.00;;;;;;;;5160958;27;8834;-73
2022/02/03 13:26:18;;;;;;;;;41.00;36.33;;;;;;;;5160834;27;11575;-74
2022/02/03 13:29:06;;;;;;;;;33.00;32.67;;;;;;;;5160687;27;13617;-73
2022/02/03 13:31:45;;;;;;;;;41.25;35.25;;;;;;;;5160734;27;13527;-72
2022/02/03 13:34:18;;;;;;;;;38.25;34.25;;;;;;;;5161416;27;13566;-73
2022/02/03 13:36:49;;;;;;;;;38.25;32.50;;;;;;;;5160696;27;11544;-72
2022/02/03 13:39:29;;;;;;;;;39.25;32.75;;;;;;;;5161186;27;11519;-72
2022/02/03 13:42:10;;;;;;;;;43.00;36.50;;;;;;;;5142603;27;13671;-73
2022/02/03 13:44:35;;;;;;;;;39.00;34.25;;;;;;;;5160949;27;13667;-73
2022/02/03 13:47:01;;;;;;;;;33.25;30.75;;;;;;;;5161144;27;14500;-73
2022/02/03 13:49:29;;;;;;;;;25.75;25.75;;;;;;;;5161369;27;10340;-73
2022/02/03 13:52:00;;;;;;;;;35.75;27.50;;;;;;;;5161220;27;13262;-73
2022/02/03 13:54:36;;;;;;;;;29.00;29.00;;;;;;;;5161096;27;15042;-73
